sensor_id;sensor_type;location;lat;lon;timestamp;temperature;humidity
18131;DHT22;9191;54.324;10.126;2022-10-19T00:00:09;12.00;99.90
18131;DHT22;9191;54.324;10.126;2022-10-19T00:02:37;12.00;99.90
18131;DHT22;9191;54.324;10.126;2022-10-19T00:05:04;11.90;99.90
18131;DHT22;9191;54.324;10.126;2022-10-19T00:07:32;12.00;99.90
18131;DHT22;9191;54.324;10.126;2022-10-19T00:09:58;12.00;99.90
18131;DHT22;9191;54.324;10.126;2022-10-19T00:12:25;12.00;99.90
18131;DHT22;9191;54.324;10.126;2022-10-19T00:14:51;12.00;99.90
18131;DHT22;9191;54.324;10.126;2022-10-19T00:17:18;12.00;99.90
18131;DHT22;9191;54.324;10.126;2022-10-19T00:19:46;12.00;99.90
18131;DHT22;9191;54.324;10.126;2022-10-19T00:22:12;12.00;99.90
18131;DHT22;9191;54.324;10.126;2022-10-19T00:24:39;12.00;99.90
18131;DHT22;9191;54.324;10.126;2022-10-19T00:27:05;12.00;99.90
18131;DHT22;9191;54.324;10.126;2022-10-19T00:29:32;12.00;99.90
18131;DHT22;9191;54.324;10.126;2022-10-19T00:31:59;12.00;99.90
18131;DHT22;9191;54.324;10.126;2022-10-19T00:34:25;12.00;99.90
18131;DHT22;9191;54.324;10.126;2022-10-19T00:36:53;12.00;99.90
18131;DHT22;9191;54.324;10.126;2022-10-19T00:39:20;12.00;99.90
18131;DHT22;9191;54.324;10.126;2022-10-19T00:41:46;12.00;99.90
18131;DHT22;9191;54.324;10.126;2022-10-19T00:47:13;12.00;99.90
18131;DHT22;9191;54.324;10.126;2022-10-19T00:49:41;12.00;99.90
18131;DHT22;9191;54.324;10.126;2022-10-19T00:52:11;12.00;99.90
18131;DHT22;9191;54.324;10.126;2022-10-19T00:54:39;12.00;99.90
18131;DHT22;9191;54.324;10.126;2022-10-19T00:57:07;12.00;99.90
18131;DHT22;9191;54.324;10.126;2022-10-19T00:59:34;12.00;99.90
18131;DHT22;9191;54.324;10.126;2022-10-19T01:02:02;12.00;99.90
18131;DHT22;9191;54.324;10.126;2022-10-19T01:04:29;12.00;99.90
18131;DHT22;9191;54.324;10.126;2022-10-19T01:06:57;12.10;99.90
18131;DHT22;9191;54.324;10.126;2022-10-19T01:09:26;12.10;99.90
18131;DHT22;9191;54.324;10.126;2022-10-19T01:11:57;12.10;99.90
18131;DHT22;9191;54.324;10.126;2022-10-19T01:14:42;12.10;99.90
18131;DHT22;9191;54.324;10.126;2022-10-19T01:17:13;12.10;99.90
18131;DHT22;9191;54.324;10.126;2022-10-19T01:19:56;12.10;99.90
18131;DHT22;9191;54.324;10.126;2022-10-19T01:22:28;12.10;99.90
18131;DHT22;9191;54.324;10.126;2022-10-19T01:24:59;12.00;99.90
18131;DHT22;9191;54.324;10.126;2022-10-19T01:30:26;12.00;99.90
18131;DHT22;9191;54.324;10.126;2022-10-19T01:32:58;12.10;99.90
18131;DHT22;9191;54.324;10.126;2022-10-19T01:35:27;12.10;99.90
18131;DHT22;9191;54.324;10.126;2022-10-19T01:38:00;12.00;99.90
18131;DHT22;9191;54.324;10.126;2022-10-19T01:40:29;12.00;99.90
18131;DHT22;9191;54.324;10.126;2022-10-19T01:42:57;12.00;99.90
18131;DHT22;9191;54.324;10.126;2022-10-19T01:45:29;11.90;99.90
18131;DHT22;9191;54.324;10.126;2022-10-19T01:47:58;11.90;99.90
18131;DHT22;9191;54.324;10.126;2022-10-19T01:50:27;11.90;99.90
18131;DHT22;9191;54.324;10.126;2022-10-19T01:52:56;11.90;99.90
18131;DHT22;9191;54.324;10.126;2022-10-19T01:55:24;12.00;99.90
18131;DHT22;9191;54.324;10.126;2022-10-19T01:57:52;12.00;99.90
18131;DHT22;9191;54.324;10.126;2022-10-19T02:00:21;12.00;99.90
18131;DHT22;9191;54.324;10.126;2022-10-19T02:02:50;11.90;99.90
18131;DHT22;9191;54.324;10.126;2022-10-19T02:05:18;12.00;99.90
18131;DHT22;9191;54.324;10.126;2022-10-19T02:07:47;11.90;99.90
18131;DHT22;9191;54.324;10.126;2022-10-19T02:10:14;11.90;99.90
18131;DHT22;9191;54.324;10.126;2022-10-19T02:12:41;11.80;99.90
18131;DHT22;9191;54.324;10.126;2022-10-19T02:15:10;11.80;99.90
18131;DHT22;9191;54.324;10.126;2022-10-19T02:17:39;11.70;99.90
18131;DHT22;9191;54.324;10.126;2022-10-19T02:20:09;11.60;99.90
18131;DHT22;9191;54.324;10.126;2022-10-19T02:22:35;11.50;99.90
18131;DHT22;9191;54.324;10.126;2022-10-19T02:25:02;11.50;99.90
18131;DHT22;9191;54.324;10.126;2022-10-19T02:27:29;11.50;99.90
18131;DHT22;9191;54.324;10.126;2022-10-19T02:29:56;11.40;99.90
18131;DHT22;9191;54.324;10.126;2022-10-19T02:32:22;11.30;99.90
18131;DHT22;9191;54.324;10.126;2022-10-19T02:34:49;11.30;99.90
18131;DHT22;9191;54.324;10.126;2022-10-19T02:37:17;11.30;99.90
18131;DHT22;9191;54.324;10.126;2022-10-19T02:39:44;11.20;99.90
18131;DHT22;9191;54.324;10.126;2022-10-19T02:42:11;11.10;99.90
18131;DHT22;9191;54.324;10.126;2022-10-19T02:44:41;11.10;99.90
18131;DHT22;9191;54.324;10.126;2022-10-19T02:47:09;11.00;99.90
18131;DHT22;9191;54.324;10.126;2022-10-19T02:49:37;10.90;99.90
18131;DHT22;9191;54.324;10.126;2022-10-19T02:52:05;10.90;99.90
18131;DHT22;9191;54.324;10.126;2022-10-19T02:54:34;10.90;99.90
18131;DHT22;9191;54.324;10.126;2022-10-19T02:57:00;10.80;99.90
18131;DHT22;9191;54.324;10.126;2022-10-19T02:59:28;10.80;99.90
18131;DHT22;9191;54.324;10.126;2022-10-19T03:01:55;10.70;99.90
18131;DHT22;9191;54.324;10.126;2022-10-19T03:04:22;10.70;99.90
18131;DHT22;9191;54.324;10.126;2022-10-19T03:06:48;10.70;99.90
18131;DHT22;9191;54.324;10.126;2022-10-19T03:09:15;10.70;99.90
18131;DHT22;9191;54.324;10.126;2022-10-19T03:11:43;10.60;99.90
18131;DHT22;9191;54.324;10.126;2022-10-19T03:14:09;10.60;99.90
18131;DHT22;9191;54.324;10.126;2022-10-19T03:16:36;10.60;99.90
18131;DHT22;9191;54.324;10.126;2022-10-19T03:19:03;10.60;99.90
18131;DHT22;9191;54.324;10.126;2022-10-19T03:21:29;10.60;99.90
18131;DHT22;9191;54.324;10.126;2022-10-19T03:23:56;10.60;99.90
18131;DHT22;9191;54.324;10.126;2022-10-19T03:26:22;10.60;99.90
18131;DHT22;9191;54.324;10.126;2022-10-19T03:28:50;10.50;99.90
18131;DHT22;9191;54.324;10.126;2022-10-19T03:31:17;10.50;99.90
18131;DHT22;9191;54.324;10.126;2022-10-19T03:33:44;10.60;99.90
18131;DHT22;9191;54.324;10.126;2022-10-19T03:36:20;10.60;99.90
18131;DHT22;9191;54.324;10.126;2022-10-19T03:38:48;10.70;99.90
18131;DHT22;9191;54.324;10.126;2022-10-19T03:41:15;10.70;99.90
18131;DHT22;9191;54.324;10.126;2022-10-19T03:43:42;10.80;99.90
18131;DHT22;9191;54.324;10.126;2022-10-19T03:46:10;10.80;99.90
18131;DHT22;9191;54.324;10.126;2022-10-19T03:48:36;10.80;99.90
18131;DHT22;9191;54.324;10.126;2022-10-19T03:51:04;10.70;99.90
18131;DHT22;9191;54.324;10.126;2022-10-19T03:53:30;10.80;99.90
18131;DHT22;9191;54.324;10.126;2022-10-19T03:56:01;10.80;99.90
18131;DHT22;9191;54.324;10.126;2022-10-19T03:58:30;10.90;99.90
18131;DHT22;9191;54.324;10.126;2022-10-19T04:00:57;10.80;99.90
18131;DHT22;9191;54.324;10.126;2022-10-19T04:03:25;10.90;99.90
18131;DHT22;9191;54.324;10.126;2022-10-19T04:05:52;10.90;99.90
18131;DHT22;9191;54.324;10.126;2022-10-19T04:08:26;10.90;99.90
18131;DHT22;9191;54.324;10.126;2022-10-19T04:10:56;10.90;99.90
18131;DHT22;9191;54.324;10.126;2022-10-19T04:13:23;11.00;99.90
18131;DHT22;9191;54.324;10.126;2022-10-19T04:15:50;11.00;99.90
18131;DHT22;9191;54.324;10.126;2022-10-19T04:18:16;11.00;99.90
18131;DHT22;9191;54.324;10.126;2022-10-19T04:20:44;11.00;99.90
18131;DHT22;9191;54.324;10.126;2022-10-19T04:23:11;11.00;99.90
18131;DHT22;9191;54.324;10.126;2022-10-19T04:25:38;11.00;99.90
18131;DHT22;9191;54.324;10.126;2022-10-19T04:28:04;11.00;99.90
18131;DHT22;9191;54.324;10.126;2022-10-19T04:30:31;11.00;99.90
18131;DHT22;9191;54.324;10.126;2022-10-19T04:32:57;11.00;99.90
18131;DHT22;9191;54.324;10.126;2022-10-19T04:35:24;11.00;99.90
18131;DHT22;9191;54.324;10.126;2022-10-19T04:37:52;11.10;99.90
18131;DHT22;9191;54.324;10.126;2022-10-19T04:40:19;11.10;99.90
18131;DHT22;9191;54.324;10.126;2022-10-19T04:42:45;11.10;99.90
18131;DHT22;9191;54.324;10.126;2022-10-19T04:45:12;11.10;99.90
18131;DHT22;9191;54.324;10.126;2022-10-19T04:47:39;11.10;99.90
18131;DHT22;9191;54.324;10.126;2022-10-19T04:50:05;11.10;99.90
18131;DHT22;9191;54.324;10.126;2022-10-19T04:52:32;11.10;99.90
18131;DHT22;9191;54.324;10.126;2022-10-19T04:55:00;11.20;99.90
18131;DHT22;9191;54.324;10.126;2022-10-19T04:57:27;11.10;99.90
18131;DHT22;9191;54.324;10.126;2022-10-19T04:59:54;11.10;99.90
18131;DHT22;9191;54.324;10.126;2022-10-19T05:02:21;11.00;99.90
18131;DHT22;9191;54.324;10.126;2022-10-19T05:04:47;11.00;99.90
18131;DHT22;9191;54.324;10.126;2022-10-19T05:07:14;11.00;99.90
18131;DHT22;9191;54.324;10.126;2022-10-19T05:09:41;11.00;99.90
18131;DHT22;9191;54.324;10.126;2022-10-19T05:12:08;11.00;99.90
18131;DHT22;9191;54.324;10.126;2022-10-19T05:14:35;11.00;99.90
18131;DHT22;9191;54.324;10.126;2022-10-19T05:17:02;11.20;99.90
18131;DHT22;9191;54.324;10.126;2022-10-19T05:19:28;11.10;99.90
18131;DHT22;9191;54.324;10.126;2022-10-19T05:21:55;11.10;99.90
18131;DHT22;9191;54.324;10.126;2022-10-19T05:24:22;11.10;99.90
18131;DHT22;9191;54.324;10.126;2022-10-19T05:26:48;11.00;99.90
18131;DHT22;9191;54.324;10.126;2022-10-19T05:29:16;10.90;99.90
18131;DHT22;9191;54.324;10.126;2022-10-19T05:31:43;10.90;99.90
18131;DHT22;9191;54.324;10.126;2022-10-19T05:34:09;10.80;99.90
18131;DHT22;9191;54.324;10.126;2022-10-19T05:36:37;10.80;99.90
18131;DHT22;9191;54.324;10.126;2022-10-19T05:39:05;10.70;99.90
18131;DHT22;9191;54.324;10.126;2022-10-19T05:41:32;10.80;99.90
18131;DHT22;9191;54.324;10.126;2022-10-19T05:43:59;10.70;99.90
18131;DHT22;9191;54.324;10.126;2022-10-19T05:46:28;10.70;99.90
18131;DHT22;9191;54.324;10.126;2022-10-19T05:48:55;10.70;99.90
18131;DHT22;9191;54.324;10.126;2022-10-19T05:51:23;10.60;99.90
18131;DHT22;9191;54.324;10.126;2022-10-19T05:53:51;10.50;99.90
18131;DHT22;9191;54.324;10.126;2022-10-19T05:56:18;10.50;99.90
18131;DHT22;9191;54.324;10.126;2022-10-19T05:58:45;10.40;99.90
18131;DHT22;9191;54.324;10.126;2022-10-19T06:01:13;10.30;99.90
18131;DHT22;9191;54.324;10.126;2022-10-19T06:03:41;10.30;99.90
18131;DHT22;9191;54.324;10.126;2022-10-19T06:06:08;10.30;99.90
18131;DHT22;9191;54.324;10.126;2022-10-19T06:08:34;10.40;99.90
18131;DHT22;9191;54.324;10.126;2022-10-19T06:11:05;10.40;99.90
18131;DHT22;9191;54.324;10.126;2022-10-19T06:13:31;10.30;99.90
18131;DHT22;9191;54.324;10.126;2022-10-19T06:15:58;10.30;99.90
18131;DHT22;9191;54.324;10.126;2022-10-19T06:18:25;10.30;99.90
18131;DHT22;9191;54.324;10.126;2022-10-19T06:20:53;10.30;99.90
18131;DHT22;9191;54.324;10.126;2022-10-19T06:23:19;10.30;99.90
18131;DHT22;9191;54.324;10.126;2022-10-19T06:25:46;10.30;99.90
18131;DHT22;9191;54.324;10.126;2022-10-19T06:28:13;10.30;99.90
18131;DHT22;9191;54.324;10.126;2022-10-19T06:30:39;10.40;99.90
18131;DHT22;9191;54.324;10.126;2022-10-19T06:33:06;10.40;99.90
18131;DHT22;9191;54.324;10.126;2022-10-19T06:35:33;10.50;99.90
18131;DHT22;9191;54.324;10.126;2022-10-19T06:38:01;10.50;99.90
18131;DHT22;9191;54.324;10.126;2022-10-19T06:40:27;10.60;99.90
18131;DHT22;9191;54.324;10.126;2022-10-19T06:42:54;10.60;99.90
18131;DHT22;9191;54.324;10.126;2022-10-19T06:45:21;10.80;99.90
18131;DHT22;9191;54.324;10.126;2022-10-19T06:47:48;10.80;99.90
18131;DHT22;9191;54.324;10.126;2022-10-19T06:50:14;10.90;99.90
18131;DHT22;9191;54.324;10.126;2022-10-19T06:52:41;10.90;99.90
18131;DHT22;9191;54.324;10.126;2022-10-19T06:55:09;11.10;99.90
18131;DHT22;9191;54.324;10.126;2022-10-19T06:57:36;11.20;99.90
18131;DHT22;9191;54.324;10.126;2022-10-19T07:00:03;11.40;99.90
18131;DHT22;9191;54.324;10.126;2022-10-19T07:02:29;11.50;99.90
18131;DHT22;9191;54.324;10.126;2022-10-19T07:04:56;11.50;99.90
18131;DHT22;9191;54.324;10.126;2022-10-19T07:07:22;11.50;99.90
18131;DHT22;9191;54.324;10.126;2022-10-19T07:09:49;11.60;99.90
18131;DHT22;9191;54.324;10.126;2022-10-19T07:12:19;11.90;99.90
18131;DHT22;9191;54.324;10.126;2022-10-19T07:14:45;12.10;99.90
18131;DHT22;9191;54.324;10.126;2022-10-19T07:17:12;12.30;99.90
18131;DHT22;9191;54.324;10.126;2022-10-19T07:19:38;12.80;99.90
18131;DHT22;9191;54.324;10.126;2022-10-19T07:22:05;13.10;99.90
18131;DHT22;9191;54.324;10.126;2022-10-19T07:24:32;13.20;99.90
18131;DHT22;9191;54.324;10.126;2022-10-19T07:26:58;13.30;99.90
18131;DHT22;9191;54.324;10.126;2022-10-19T07:29:26;13.60;99.90
18131;DHT22;9191;54.324;10.126;2022-10-19T07:31:53;13.60;99.90
18131;DHT22;9191;54.324;10.126;2022-10-19T07:34:19;13.50;99.90
18131;DHT22;9191;54.324;10.126;2022-10-19T07:36:46;13.30;99.90
18131;DHT22;9191;54.324;10.126;2022-10-19T07:39:13;14.30;99.90
18131;DHT22;9191;54.324;10.126;2022-10-19T07:41:41;15.70;99.90
18131;DHT22;9191;54.324;10.126;2022-10-19T07:44:08;16.50;99.90
18131;DHT22;9191;54.324;10.126;2022-10-19T07:46:36;17.70;99.90
18131;DHT22;9191;54.324;10.126;2022-10-19T07:49:04;18.60;99.90
18131;DHT22;9191;54.324;10.126;2022-10-19T07:51:31;19.90;99.90
18131;DHT22;9191;54.324;10.126;2022-10-19T07:53:58;20.30;99.90
18131;DHT22;9191;54.324;10.126;2022-10-19T07:56:25;20.60;99.90
18131;DHT22;9191;54.324;10.126;2022-10-19T07:58:53;21.40;99.90
18131;DHT22;9191;54.324;10.126;2022-10-19T08:01:20;21.70;99.90
18131;DHT22;9191;54.324;10.126;2022-10-19T08:03:50;22.00;99.90
18131;DHT22;9191;54.324;10.126;2022-10-19T08:06:16;21.70;99.90
18131;DHT22;9191;54.324;10.126;2022-10-19T08:08:44;21.30;99.90
18131;DHT22;9191;54.324;10.126;2022-10-19T08:11:12;21.40;99.90
18131;DHT22;9191;54.324;10.126;2022-10-19T08:13:39;22.50;99.90
18131;DHT22;9191;54.324;10.126;2022-10-19T08:16:15;22.00;99.90
18131;DHT22;9191;54.324;10.126;2022-10-19T08:18:45;20.80;99.90
18131;DHT22;9191;54.324;10.126;2022-10-19T08:21:13;20.10;99.90
18131;DHT22;9191;54.324;10.126;2022-10-19T08:23:39;19.10;99.90
18131;DHT22;9191;54.324;10.126;2022-10-19T08:26:06;19.90;99.90
18131;DHT22;9191;54.324;10.126;2022-10-19T08:28:33;20.50;99.90
18131;DHT22;9191;54.324;10.126;2022-10-19T08:31:07;21.00;99.90
18131;DHT22;9191;54.324;10.126;2022-10-19T08:33:34;21.70;99.90
18131;DHT22;9191;54.324;10.126;2022-10-19T08:36:02;21.50;99.90
18131;DHT22;9191;54.324;10.126;2022-10-19T08:38:30;21.60;99.90
18131;DHT22;9191;54.324;10.126;2022-10-19T08:40:57;21.40;99.90
18131;DHT22;9191;54.324;10.126;2022-10-19T08:43:31;21.50;99.90
18131;DHT22;9191;54.324;10.126;2022-10-19T08:46:00;21.40;99.90
18131;DHT22;9191;54.324;10.126;2022-10-19T08:48:29;21.60;99.90
18131;DHT22;9191;54.324;10.126;2022-10-19T08:50:57;21.80;99.90
18131;DHT22;9191;54.324;10.126;2022-10-19T08:53:26;21.70;99.90
18131;DHT22;9191;54.324;10.126;2022-10-19T08:56:03;21.50;99.90
18131;DHT22;9191;54.324;10.126;2022-10-19T08:58:35;21.10;99.90
18131;DHT22;9191;54.324;10.126;2022-10-19T09:01:06;20.10;99.90
18131;DHT22;9191;54.324;10.126;2022-10-19T09:03:37;19.10;99.90
18131;DHT22;9191;54.324;10.126;2022-10-19T09:06:06;19.30;99.90
18131;DHT22;9191;54.324;10.126;2022-10-19T09:08:37;19.60;99.90
18131;DHT22;9191;54.324;10.126;2022-10-19T09:11:05;19.90;99.90
18131;DHT22;9191;54.324;10.126;2022-10-19T09:13:37;20.90;99.90
18131;DHT22;9191;54.324;10.126;2022-10-19T09:16:05;21.20;99.90
18131;DHT22;9191;54.324;10.126;2022-10-19T09:18:33;20.80;99.90
18131;DHT22;9191;54.324;10.126;2022-10-19T09:21:01;21.10;99.90
18131;DHT22;9191;54.324;10.126;2022-10-19T09:23:31;20.80;99.90
18131;DHT22;9191;54.324;10.126;2022-10-19T09:26:01;21.00;99.90
18131;DHT22;9191;54.324;10.126;2022-10-19T09:28:39;21.20;99.90
18131;DHT22;9191;54.324;10.126;2022-10-19T09:31:09;21.50;99.90
18131;DHT22;9191;54.324;10.126;2022-10-19T09:33:37;21.80;99.90
18131;DHT22;9191;54.324;10.126;2022-10-19T09:36:04;21.50;99.90
18131;DHT22;9191;54.324;10.126;2022-10-19T09:38:32;21.20;99.90
18131;DHT22;9191;54.324;10.126;2022-10-19T09:41:02;20.60;99.90
18131;DHT22;9191;54.324;10.126;2022-10-19T09:43:32;19.60;99.90
18131;DHT22;9191;54.324;10.126;2022-10-19T09:46:02;18.40;99.90
18131;DHT22;9191;54.324;10.126;2022-10-19T09:48:31;17.30;99.90
18131;DHT22;9191;54.324;10.126;2022-10-19T09:50:59;16.50;99.90
18131;DHT22;9191;54.324;10.126;2022-10-19T09:53:26;16.10;99.90
18131;DHT22;9191;54.324;10.126;2022-10-19T09:55:56;15.70;99.90
18131;DHT22;9191;54.324;10.126;2022-10-19T09:58:24;15.30;99.90
18131;DHT22;9191;54.324;10.126;2022-10-19T10:00:52;15.10;99.90
18131;DHT22;9191;54.324;10.126;2022-10-19T10:03:25;14.90;99.90
18131;DHT22;9191;54.324;10.126;2022-10-19T10:05:52;14.80;99.90
18131;DHT22;9191;54.324;10.126;2022-10-19T10:08:20;14.70;99.90
18131;DHT22;9191;54.324;10.126;2022-10-19T10:10:47;14.50;99.90
18131;DHT22;9191;54.324;10.126;2022-10-19T10:13:19;14.20;99.90
18131;DHT22;9191;54.324;10.126;2022-10-19T10:15:47;14.20;99.90
18131;DHT22;9191;54.324;10.126;2022-10-19T10:18:15;14.30;99.90
18131;DHT22;9191;54.324;10.126;2022-10-19T10:20:56;14.30;99.90
18131;DHT22;9191;54.324;10.126;2022-10-19T10:23:23;14.20;99.90
18131;DHT22;9191;54.324;10.126;2022-10-19T10:25:53;14.30;99.90
18131;DHT22;9191;54.324;10.126;2022-10-19T10:28:20;14.10;99.90
18131;DHT22;9191;54.324;10.126;2022-10-19T10:30:48;14.10;99.90
18131;DHT22;9191;54.324;10.126;2022-10-19T10:33:20;13.90;99.90
18131;DHT22;9191;54.324;10.126;2022-10-19T10:35:51;13.90;99.90
18131;DHT22;9191;54.324;10.126;2022-10-19T10:38:22;13.90;99.90
18131;DHT22;9191;54.324;10.126;2022-10-19T10:40:50;13.90;99.90
18131;DHT22;9191;54.324;10.126;2022-10-19T10:43:18;14.00;99.90
18131;DHT22;9191;54.324;10.126;2022-10-19T10:45:47;14.10;99.90
18131;DHT22;9191;54.324;10.126;2022-10-19T10:48:19;14.10;99.90
18131;DHT22;9191;54.324;10.126;2022-10-19T10:50:50;14.30;99.90
18131;DHT22;9191;54.324;10.126;2022-10-19T10:56:22;14.30;99.90
18131;DHT22;9191;54.324;10.126;2022-10-19T10:58:50;14.20;99.90
18131;DHT22;9191;54.324;10.126;2022-10-19T11:01:18;14.20;99.90
18131;DHT22;9191;54.324;10.126;2022-10-19T11:03:46;14.10;99.90
18131;DHT22;9191;54.324;10.126;2022-10-19T11:06:15;14.10;99.90
18131;DHT22;9191;54.324;10.126;2022-10-19T11:08:44;14.10;99.90
18131;DHT22;9191;54.324;10.126;2022-10-19T11:11:13;14.10;99.90
18131;DHT22;9191;54.324;10.126;2022-10-19T11:13:44;14.00;99.90
18131;DHT22;9191;54.324;10.126;2022-10-19T11:16:14;14.00;99.90
18131;DHT22;9191;54.324;10.126;2022-10-19T11:18:42;14.20;99.90
18131;DHT22;9191;54.324;10.126;2022-10-19T11:21:10;14.20;99.90
18131;DHT22;9191;54.324;10.126;2022-10-19T11:23:45;14.20;99.90
18131;DHT22;9191;54.324;10.126;2022-10-19T11:26:19;14.20;99.90
18131;DHT22;9191;54.324;10.126;2022-10-19T11:28:56;14.20;99.90
18131;DHT22;9191;54.324;10.126;2022-10-19T11:31:25;14.10;99.90
18131;DHT22;9191;54.324;10.126;2022-10-19T11:33:57;14.10;99.90
18131;DHT22;9191;54.324;10.126;2022-10-19T11:36:29;14.20;99.90
18131;DHT22;9191;54.324;10.126;2022-10-19T11:38:59;14.10;99.90
18131;DHT22;9191;54.324;10.126;2022-10-19T11:41:29;14.10;99.90
18131;DHT22;9191;54.324;10.126;2022-10-19T11:44:04;14.20;99.90
18131;DHT22;9191;54.324;10.126;2022-10-19T11:46:33;14.10;99.90
18131;DHT22;9191;54.324;10.126;2022-10-19T11:49:04;14.10;99.90
18131;DHT22;9191;54.324;10.126;2022-10-19T11:51:36;14.10;99.90
18131;DHT22;9191;54.324;10.126;2022-10-19T11:54:09;14.10;99.90
18131;DHT22;9191;54.324;10.126;2022-10-19T11:56:40;13.90;99.90
18131;DHT22;9191;54.324;10.126;2022-10-19T11:59:11;14.00;99.90
18131;DHT22;9191;54.324;10.126;2022-10-19T12:01:44;14.00;99.90
18131;DHT22;9191;54.324;10.126;2022-10-19T12:07:08;14.00;99.90
18131;DHT22;9191;54.324;10.126;2022-10-19T12:09:42;14.00;99.90
18131;DHT22;9191;54.324;10.126;2022-10-19T12:12:15;14.00;99.90
18131;DHT22;9191;54.324;10.126;2022-10-19T12:14:45;14.00;99.90
18131;DHT22;9191;54.324;10.126;2022-10-19T12:17:14;14.00;99.90
18131;DHT22;9191;54.324;10.126;2022-10-19T12:19:45;14.00;99.90
18131;DHT22;9191;54.324;10.126;2022-10-19T12:22:14;14.00;99.90
18131;DHT22;9191;54.324;10.126;2022-10-19T12:24:42;14.00;99.90
18131;DHT22;9191;54.324;10.126;2022-10-19T12:27:09;14.00;99.90
18131;DHT22;9191;54.324;10.126;2022-10-19T12:29:38;13.90;99.90
18131;DHT22;9191;54.324;10.126;2022-10-19T12:32:08;13.90;99.90
18131;DHT22;9191;54.324;10.126;2022-10-19T12:34:40;13.80;99.90
18131;DHT22;9191;54.324;10.126;2022-10-19T12:37:10;13.90;99.90
18131;DHT22;9191;54.324;10.126;2022-10-19T12:39:40;13.80;99.90
18131;DHT22;9191;54.324;10.126;2022-10-19T12:42:11;13.80;99.90
18131;DHT22;9191;54.324;10.126;2022-10-19T12:44:47;13.90;99.90
18131;DHT22;9191;54.324;10.126;2022-10-19T12:47:21;13.80;99.90
18131;DHT22;9191;54.324;10.126;2022-10-19T12:49:48;13.80;99.90
18131;DHT22;9191;54.324;10.126;2022-10-19T12:52:16;13.80;99.90
18131;DHT22;9191;54.324;10.126;2022-10-19T12:55:08;13.70;99.90
18131;DHT22;9191;54.324;10.126;2022-10-19T12:57:35;13.70;99.90
18131;DHT22;9191;54.324;10.126;2022-10-19T13:00:17;13.70;99.90
18131;DHT22;9191;54.324;10.126;2022-10-19T13:02:46;13.70;99.90
18131;DHT22;9191;54.324;10.126;2022-10-19T13:05:18;13.80;99.90
18131;DHT22;9191;54.324;10.126;2022-10-19T13:07:46;13.80;99.90
18131;DHT22;9191;54.324;10.126;2022-10-19T13:10:17;13.80;99.90
18131;DHT22;9191;54.324;10.126;2022-10-19T13:12:44;13.90;99.90
18131;DHT22;9191;54.324;10.126;2022-10-19T13:17:58;13.70;99.90
18131;DHT22;9191;54.324;10.126;2022-10-19T13:28:36;13.60;99.90
18131;DHT22;9191;54.324;10.126;2022-10-19T13:31:03;13.60;99.90
18131;DHT22;9191;54.324;10.126;2022-10-19T13:33:42;13.50;99.90
18131;DHT22;9191;54.324;10.126;2022-10-19T13:36:09;13.50;99.90
18131;DHT22;9191;54.324;10.126;2022-10-19T13:38:36;13.50;99.90
18131;DHT22;9191;54.324;10.126;2022-10-19T13:41:04;13.50;99.90
18131;DHT22;9191;54.324;10.126;2022-10-19T13:43:32;13.50;99.90
18131;DHT22;9191;54.324;10.126;2022-10-19T13:46:02;13.50;99.90
18131;DHT22;9191;54.324;10.126;2022-10-19T13:48:31;13.40;99.90
18131;DHT22;9191;54.324;10.126;2022-10-19T13:51:04;13.40;99.90
18131;DHT22;9191;54.324;10.126;2022-10-19T13:53:38;13.40;99.90
18131;DHT22;9191;54.324;10.126;2022-10-19T14:02:11;13.30;99.90
18131;DHT22;9191;54.324;10.126;2022-10-19T14:04:41;13.30;99.90
18131;DHT22;9191;54.324;10.126;2022-10-19T14:07:14;13.40;99.90
18131;DHT22;9191;54.324;10.126;2022-10-19T14:09:59;13.30;99.90
18131;DHT22;9191;54.324;10.126;2022-10-19T14:12:29;13.20;99.90
18131;DHT22;9191;54.324;10.126;2022-10-19T14:14:58;13.20;99.90
18131;DHT22;9191;54.324;10.126;2022-10-19T14:17:39;13.20;99.90
18131;DHT22;9191;54.324;10.126;2022-10-19T14:20:18;13.10;99.90
18131;DHT22;9191;54.324;10.126;2022-10-19T14:22:50;13.10;99.90
18131;DHT22;9191;54.324;10.126;2022-10-19T14:25:18;13.10;99.90
18131;DHT22;9191;54.324;10.126;2022-10-19T14:27:45;13.20;99.90
18131;DHT22;9191;54.324;10.126;2022-10-19T14:30:19;13.10;99.90
18131;DHT22;9191;54.324;10.126;2022-10-19T14:32:46;13.00;99.90
18131;DHT22;9191;54.324;10.126;2022-10-19T14:35:16;13.00;99.90
18131;DHT22;9191;54.324;10.126;2022-10-19T14:37:43;13.00;99.90
18131;DHT22;9191;54.324;10.126;2022-10-19T14:40:22;13.00;99.90
18131;DHT22;9191;54.324;10.126;2022-10-19T14:42:49;13.00;99.90
18131;DHT22;9191;54.324;10.126;2022-10-19T14:45:16;13.10;99.90
18131;DHT22;9191;54.324;10.126;2022-10-19T14:47:50;13.00;99.90
18131;DHT22;9191;54.324;10.126;2022-10-19T14:50:17;13.10;99.90
18131;DHT22;9191;54.324;10.126;2022-10-19T14:52:45;12.90;99.90
18131;DHT22;9191;54.324;10.126;2022-10-19T14:55:12;12.90;99.90
18131;DHT22;9191;54.324;10.126;2022-10-19T14:57:42;13.00;99.90
18131;DHT22;9191;54.324;10.126;2022-10-19T15:00:13;13.00;99.90
18131;DHT22;9191;54.324;10.126;2022-10-19T15:02:45;12.90;99.90
18131;DHT22;9191;54.324;10.126;2022-10-19T15:05:14;12.90;99.90
18131;DHT22;9191;54.324;10.126;2022-10-19T15:07:44;12.70;99.90
18131;DHT22;9191;54.324;10.126;2022-10-19T15:10:16;12.80;99.90
18131;DHT22;9191;54.324;10.126;2022-10-19T15:12:44;12.70;99.90
18131;DHT22;9191;54.324;10.126;2022-10-19T15:15:13;12.60;99.90
18131;DHT22;9191;54.324;10.126;2022-10-19T15:17:47;12.60;99.90
18131;DHT22;9191;54.324;10.126;2022-10-19T15:20:22;12.50;99.90
18131;DHT22;9191;54.324;10.126;2022-10-19T15:22:48;12.60;99.90
18131;DHT22;9191;54.324;10.126;2022-10-19T15:25:22;13.50;99.90
18131;DHT22;9191;54.324;10.126;2022-10-19T15:27:50;14.50;99.90
18131;DHT22;9191;54.324;10.126;2022-10-19T15:30:22;15.20;99.90
18131;DHT22;9191;54.324;10.126;2022-10-19T15:32:49;14.70;99.90
18131;DHT22;9191;54.324;10.126;2022-10-19T15:35:17;14.40;99.90
18131;DHT22;9191;54.324;10.126;2022-10-19T15:37:47;13.90;99.90
18131;DHT22;9191;54.324;10.126;2022-10-19T15:40:17;13.40;99.90
18131;DHT22;9191;54.324;10.126;2022-10-19T15:42:45;13.00;99.90
18131;DHT22;9191;54.324;10.126;2022-10-19T15:45:31;12.70;99.90
18131;DHT22;9191;54.324;10.126;2022-10-19T15:50:41;12.50;99.90
18131;DHT22;9191;54.324;10.126;2022-10-19T15:53:08;12.40;99.90
18131;DHT22;9191;54.324;10.126;2022-10-19T15:55:35;12.30;99.90
18131;DHT22;9191;54.324;10.126;2022-10-19T15:58:01;12.20;99.90
18131;DHT22;9191;54.324;10.126;2022-10-19T16:00:29;12.10;99.90
18131;DHT22;9191;54.324;10.126;2022-10-19T16:02:57;12.00;99.90
18131;DHT22;9191;54.324;10.126;2022-10-19T16:05:23;11.90;99.90
18131;DHT22;9191;54.324;10.126;2022-10-19T16:07:50;11.90;99.90
18131;DHT22;9191;54.324;10.126;2022-10-19T16:10:18;11.80;99.90